Terminal Aerodrome Forecast
Issued by NWS North Platte, NE

Home | Current Version | Previous Version | Text Only | Print | Product List | Glossary On
Versions: 1 2 3 4 5 6 7 8 9 10 11 12 13 14 15 16 17 18 19 20 21 22 23 24
000
FTUS43 KLBF 272000 AAA
TAFVTN
TAF AMD
KVTN 272000Z 2720/2818 03010KT P6SM VCTS BKN100CB
      TEMPO 2721/2723 -TSRA BKN050CB
     FM280000 04008KT P6SM BKN100
     FM280300 06005KT P6SM SCT250
     FM281000 10006KT P6SM BKN250=

USA.gov is the U.S. government's official web portal to all federal, state and local government web resources and services.